createdAt,value
2019-05-06T00:00:34.108Z,23.60
2019-05-06T00:03:43.477Z,21.27
2019-05-06T00:06:51.289Z,23.57
2019-05-06T00:09:58.681Z,32.90
2019-05-06T00:13:07.170Z,25.17
2019-05-06T00:16:14.649Z,28.93
2019-05-06T00:19:24.469Z,28.60
2019-05-06T00:22:31.298Z,25.07
2019-05-06T00:25:59.306Z,24.93
2019-05-06T00:29:10.005Z,27.93
2019-05-06T00:32:17.589Z,24.33
2019-05-06T00:35:26.083Z,23.40
2019-05-06T00:38:34.136Z,21.13
2019-05-06T00:41:43.367Z,23.97
2019-05-06T00:44:50.811Z,20.93
2019-05-06T00:47:58.235Z,20.37
2019-05-06T00:51:05.694Z,25.10
2019-05-06T00:54:18.115Z,22.03
2019-05-06T00:57:44.254Z,22.07
2019-05-06T01:00:53.785Z,22.47
2019-05-06T01:04:01.022Z,24.27
2019-05-06T01:07:08.474Z,24.60
2019-05-06T01:10:17.121Z,32.17
2019-05-06T01:13:43.798Z,26.70
2019-05-06T01:16:51.478Z,30.10
2019-05-06T01:19:58.908Z,26.57
2019-05-06T01:23:06.369Z,29.60
2019-05-06T01:26:15.535Z,26.83
2019-05-06T01:29:24.217Z,42.07
2019-05-06T01:32:31.806Z,39.33
2019-05-06T01:35:39.244Z,38.47
2019-05-06T01:39:08.241Z,39.20
2019-05-06T01:42:30.309Z,38.43
2019-05-06T01:45:37.777Z,38.23
2019-05-06T01:48:48.329Z,29.77
2019-05-06T01:51:55.837Z,26.23
2019-05-06T01:55:04.951Z,22.40
2019-05-06T01:58:14.518Z,33.07
2019-05-06T02:01:21.507Z,17.47
2019-05-06T02:04:28.971Z,17.27
2019-05-06T02:07:37.338Z,15.90
2019-05-06T02:10:45.009Z,13.40
2019-05-06T02:13:53.817Z,12.73
2019-05-06T02:17:03.466Z,14.23
2019-05-06T02:20:11.242Z,13.60
2019-05-06T02:23:24.074Z,11.70
2019-05-06T02:26:30.910Z,17.17
2019-05-06T02:29:43.840Z,14.13
2019-05-06T02:33:00.255Z,15.33
2019-05-06T02:36:21.264Z,9.93
2019-05-06T02:39:28.720Z,13.03
2019-05-06T02:42:36.200Z,8.23
2019-05-06T02:45:43.595Z,9.57
2019-05-06T02:49:08.570Z,10.57
2019-05-06T02:52:16.015Z,8.30
2019-05-06T02:55:23.693Z,6.43
2019-05-06T02:58:33.044Z,5.33
2019-05-06T03:01:43.151Z,7.17
2019-05-06T03:04:49.426Z,6.53
2019-05-06T03:07:57.645Z,7.17
2019-05-06T03:11:06.512Z,7.37
2019-05-06T03:14:14.982Z,4.53
2019-05-06T03:17:23.411Z,9.00
2019-05-06T03:21:03.903Z,7.10
2019-05-06T03:24:28.506Z,7.00
2019-05-06T03:27:36.033Z,5.97
2019-05-06T03:30:45.714Z,10.40
2019-05-06T03:34:16.222Z,3.23
2019-05-06T03:37:06.410Z,5.53
2019-05-06T03:40:13.650Z,6.90
2019-05-06T03:43:23.073Z,4.33
2019-05-06T03:46:53.909Z,5.40
2019-05-06T03:50:04.618Z,4.87
2019-05-06T03:53:14.096Z,6.20
2019-05-06T03:56:23.876Z,6.30
2019-05-06T03:59:33.503Z,3.53
2019-05-06T04:02:43.529Z,3.13
2019-05-06T04:05:52.471Z,5.43
2019-05-06T04:08:59.903Z,8.70
2019-05-06T04:12:09.033Z,4.00
2019-05-06T04:15:16.475Z,5.60
2019-05-06T04:18:24.916Z,11.27
2019-05-06T04:21:40.121Z,5.43
2019-05-06T04:25:13.989Z,7.27
2019-05-06T04:28:23.968Z,8.30
2019-05-06T04:31:33.565Z,5.00
2019-05-06T04:34:43.083Z,6.77
2019-05-06T04:37:53.526Z,7.63
2019-05-06T04:41:02.726Z,7.10
2019-05-06T04:44:09.026Z,9.10
2019-05-06T04:47:16.433Z,9.70
2019-05-06T04:50:24.453Z,6.13
2019-05-06T04:53:33.748Z,6.67
2019-05-06T04:56:43.705Z,4.67
2019-05-06T04:59:50.758Z,4.10
2019-05-06T05:02:58.293Z,5.10
2019-05-06T05:06:06.045Z,5.57
2019-05-06T05:09:17.162Z,5.40
2019-05-06T05:12:28.986Z,4.77
2019-05-06T05:15:46.196Z,5.33
2019-05-06T05:18:57.180Z,18.80
2019-05-06T05:22:08.217Z,7.47
2019-05-06T05:25:15.606Z,7.73
2019-05-06T05:28:23.012Z,6.77
2019-05-06T05:31:33.126Z,8.93
2019-05-06T05:34:41.062Z,10.73
2019-05-06T05:37:50.102Z,11.20
2019-05-06T05:40:57.504Z,6.83
2019-05-06T05:44:16.117Z,8.27
2019-05-06T05:47:23.526Z,5.80
2019-05-06T05:50:34.911Z,7.90
2019-05-06T05:53:43.332Z,11.10
2019-05-06T05:56:52.943Z,9.93
2019-05-06T06:00:00.255Z,6.43
2019-05-06T06:03:07.821Z,8.47
2019-05-06T06:06:15.320Z,11.57
2019-05-06T06:09:25.640Z,15.20
2019-05-06T06:12:33.277Z,8.90
2019-05-06T06:15:54.503Z,10.43
2019-05-06T06:19:12.726Z,10.47
2019-05-06T06:22:22.827Z,13.30
2019-05-06T06:25:33.258Z,9.90
2019-05-06T06:28:42.416Z,12.73
2019-05-06T06:32:22.831Z,16.03
2019-05-06T06:35:35.453Z,13.67
2019-05-06T06:39:04.438Z,17.10
2019-05-06T06:42:13.529Z,6.27
2019-05-06T06:45:22.901Z,18.20
2019-05-06T06:48:31.944Z,15.57
2019-05-06T06:51:39.746Z,10.30
2019-05-06T06:54:47.252Z,9.97
2019-05-06T06:58:14.829Z,8.17
2019-05-06T07:01:30.156Z,11.93
2019-05-06T07:04:43.590Z,9.40
2019-05-06T07:07:53.112Z,5.50
2019-05-06T07:11:02.220Z,7.03
2019-05-06T07:14:09.864Z,7.10
2019-05-06T07:17:17.314Z,8.80
2019-05-06T07:20:26.879Z,5.67
2019-05-06T07:23:35.365Z,5.47
2019-05-06T07:26:56.120Z,7.40
2019-05-06T07:30:03.524Z,7.77
2019-05-06T07:33:13.126Z,7.70
2019-05-06T07:36:20.306Z,7.40
2019-05-06T07:39:28.383Z,5.83
2019-05-06T07:42:43.014Z,8.13
2019-05-06T07:45:53.146Z,10.73
2019-05-06T07:49:02.989Z,7.80
2019-05-06T07:52:12.222Z,9.07
2019-05-06T07:55:18.962Z,10.50
2019-05-06T07:58:27.353Z,8.40
2019-05-06T08:01:34.799Z,13.40
2019-05-06T08:04:42.348Z,15.13
2019-05-06T08:07:49.747Z,8.73
2019-05-06T08:10:57.452Z,12.77
2019-05-06T08:14:04.992Z,10.03
2019-05-06T08:17:37.779Z,10.87
2019-05-06T08:20:45.213Z,10.63
2019-05-06T08:23:53.313Z,20.13
2019-05-06T08:27:02.912Z,7.90
2019-05-06T08:30:12.899Z,8.27
2019-05-06T08:33:21.970Z,6.93
2019-05-06T08:36:49.362Z,9.37
2019-05-06T08:39:56.788Z,11.17
2019-05-06T08:43:04.279Z,10.40
2019-05-06T08:46:12.541Z,13.23
2019-05-06T08:49:20.051Z,11.67
2019-05-06T08:52:32.277Z,6.17
2019-05-06T08:55:42.056Z,7.40
2019-05-06T08:58:49.863Z,11.27
2019-05-06T09:01:58.711Z,8.50
2019-05-06T09:05:06.458Z,13.20
2019-05-06T09:08:13.977Z,10.70
2019-05-06T09:11:25.218Z,12.33
2019-05-06T09:14:32.678Z,15.00
2019-05-06T09:17:41.901Z,8.70
2019-05-06T09:20:48.999Z,8.03
2019-05-06T09:23:56.524Z,10.70
2019-05-06T09:27:32.783Z,10.23
2019-05-06T09:31:12.610Z,13.53
2019-05-06T09:34:43.112Z,17.37
2019-05-06T09:37:50.284Z,14.17
2019-05-06T09:40:57.767Z,11.20
2019-05-06T09:44:05.221Z,11.73
2019-05-06T09:47:37.823Z,8.20
2019-05-06T09:50:47.199Z,10.67
2019-05-06T09:54:04.715Z,11.50
2019-05-06T09:57:21.992Z,8.30
2019-05-06T10:00:32.969Z,6.47
2019-05-06T10:03:39.963Z,9.30
2019-05-06T10:06:56.310Z,12.03
2019-05-06T10:09:56.785Z,8.07
2019-05-06T10:13:04.430Z,11.13
2019-05-06T10:16:13.020Z,10.53
2019-05-06T10:19:22.672Z,13.90
2019-05-06T10:22:32.448Z,10.27
2019-05-06T10:25:43.623Z,12.37
2019-05-06T10:29:01.916Z,17.37
2019-05-06T10:32:15.150Z,7.57
2019-05-06T10:35:25.534Z,8.07
2019-05-06T10:38:55.864Z,8.10
2019-05-06T10:42:13.340Z,9.97
2019-05-06T10:45:32.393Z,8.33
2019-05-06T10:48:39.721Z,8.20
2019-05-06T10:52:02.347Z,6.33
2019-05-06T10:55:12.221Z,9.03
2019-05-06T10:58:19.140Z,5.80
2019-05-06T11:01:33.118Z,10.07
2019-05-06T11:04:42.481Z,18.27
2019-05-06T11:07:52.006Z,10.63
2019-05-06T11:11:14.109Z,8.90
2019-05-06T11:14:08.109Z,7.07
2019-05-06T11:17:16.689Z,10.07
2019-05-06T11:20:24.321Z,6.93
2019-05-06T11:23:33.784Z,6.53
2019-05-06T11:26:43.042Z,11.63
2019-05-06T11:29:53.042Z,9.63
2019-05-06T11:33:06.673Z,11.60
2019-05-06T11:36:27.613Z,11.20
2019-05-06T11:39:36.190Z,8.63
2019-05-06T11:42:45.316Z,8.43
2019-05-06T11:45:52.845Z,12.53
2019-05-06T11:49:00.575Z,12.07
2019-05-06T11:52:08.085Z,9.03
2019-05-06T11:55:27.815Z,9.03
2019-05-06T11:58:43.195Z,8.53
2019-05-06T12:01:53.797Z,8.10
2019-05-06T12:05:02.339Z,9.87
2019-05-06T12:08:13.141Z,9.30
2019-05-06T12:11:19.212Z,7.30
2019-05-06T12:14:27.943Z,6.23
2019-05-06T12:17:35.477Z,5.73
2019-05-06T12:20:43.079Z,7.20
2019-05-06T12:23:53.526Z,6.83
2019-05-06T12:26:59.829Z,5.43
2019-05-06T12:30:07.954Z,11.03
2019-05-06T12:33:34.262Z,12.93
2019-05-06T12:36:42.742Z,6.10
2019-05-06T12:39:54.637Z,5.17
2019-05-06T12:43:29.771Z,5.90
2019-05-06T12:46:40.006Z,11.63
2019-05-06T12:49:47.643Z,9.20
2019-05-06T12:52:57.711Z,9.80
2019-05-06T12:56:04.309Z,8.47
2019-05-06T12:59:12.783Z,13.43
2019-05-06T13:02:20.350Z,11.57
2019-05-06T13:05:27.943Z,7.43
2019-05-06T13:08:52.264Z,8.20
2019-05-06T13:11:44.618Z,8.60
2019-05-06T13:14:52.719Z,9.50
2019-05-06T13:18:06.455Z,10.60
2019-05-06T13:21:12.721Z,10.90
2019-05-06T13:24:19.767Z,9.90
2019-05-06T13:27:27.482Z,10.73
2019-05-06T13:30:35.293Z,10.93
2019-05-06T13:34:04.948Z,11.57
2019-05-06T13:37:12.913Z,6.60
2019-05-06T13:40:22.775Z,7.80
2019-05-06T13:43:37.636Z,7.80
2019-05-06T13:46:49.972Z,9.60
2019-05-06T13:49:59.916Z,10.63
2019-05-06T13:53:11.623Z,7.43
2019-05-06T13:56:17.731Z,11.13
2019-05-06T13:59:29.447Z,22.43
2019-05-06T14:02:53.189Z,13.53
2019-05-06T14:06:02.830Z,8.73
2019-05-06T14:09:27.195Z,17.67
2019-05-06T14:12:22.244Z,10.03
2019-05-06T14:15:32.505Z,16.30
2019-05-06T14:18:42.600Z,9.53
2019-05-06T14:21:52.318Z,9.03
2019-05-06T14:25:18.773Z,7.90
2019-05-06T14:28:37.527Z,11.77
2019-05-06T14:31:48.247Z,14.83
2019-05-06T14:34:55.809Z,10.10
2019-05-06T14:38:03.495Z,5.67
2019-05-06T14:41:17.811Z,6.80
2019-05-06T14:44:25.316Z,8.37
2019-05-06T14:47:35.220Z,8.33
2019-05-06T14:50:46.102Z,7.10
2019-05-06T14:53:53.049Z,8.40
2019-05-06T14:57:07.486Z,8.20
2019-05-06T15:00:16.880Z,11.07
2019-05-06T15:03:24.497Z,14.43
2019-05-06T15:06:33.111Z,8.40
2019-05-06T15:09:53.701Z,9.13
2019-05-06T15:12:49.867Z,13.43
2019-05-06T15:15:57.525Z,14.30
2019-05-06T15:19:05.281Z,15.37
2019-05-06T15:22:14.386Z,21.20
2019-05-06T15:25:22.264Z,28.10
2019-05-06T15:28:30.151Z,12.37
2019-05-06T15:31:47.868Z,9.13
2019-05-06T15:35:14.163Z,10.40
2019-05-06T15:38:25.656Z,19.80
2019-05-06T15:41:33.166Z,14.97
2019-05-06T15:44:42.486Z,14.53
2019-05-06T15:47:52.127Z,16.57
2019-05-06T15:50:58.985Z,19.80
2019-05-06T15:54:07.993Z,28.67
2019-05-06T15:57:15.477Z,21.23
2019-05-06T16:00:23.359Z,13.70
2019-05-06T16:03:33.412Z,17.43
2019-05-06T16:06:44.431Z,13.60
2019-05-06T16:09:55.016Z,12.27
2019-05-06T16:12:59.570Z,11.20
2019-05-06T16:16:07.151Z,15.85
2019-05-06T16:19:14.587Z,15.13
2019-05-06T16:22:22.714Z,15.05
2019-05-06T16:25:30.504Z,13.80
2019-05-06T16:28:38.090Z,18.73
2019-05-06T16:31:45.647Z,13.93
2019-05-06T16:34:53.157Z,19.13
2019-05-06T16:38:02.335Z,13.50
2019-05-06T16:41:13.184Z,19.20
2019-05-06T16:44:19.219Z,28.30
2019-05-06T16:47:44.401Z,20.93
2019-05-06T16:50:51.006Z,59.67
2019-05-06T16:53:58.629Z,47.13
2019-05-06T16:57:13.597Z,69.70
2019-05-06T17:00:23.160Z,21.03
2019-05-06T17:03:37.490Z,39.90
2019-05-06T17:06:45.607Z,23.93
2019-05-06T17:09:53.082Z,17.47
2019-05-06T17:13:02.894Z,11.63
2019-05-06T17:16:10.695Z,15.83
2019-05-06T17:19:18.786Z,23.50
2019-05-06T17:22:27.062Z,19.70
2019-05-06T17:25:34.751Z,29.87
2019-05-06T17:28:56.927Z,28.93
2019-05-06T17:32:14.241Z,23.50
2019-05-06T17:35:23.210Z,58.80
2019-05-06T17:38:36.140Z,30.40
2019-05-06T17:41:48.525Z,25.67
2019-05-06T17:44:53.376Z,20.80
2019-05-06T17:48:07.479Z,25.80
2019-05-06T17:51:20.313Z,40.43
2019-05-06T17:54:27.751Z,70.67
2019-05-06T17:57:35.237Z,45.80
2019-05-06T18:00:43.213Z,55.90
2019-05-06T18:03:52.634Z,36.20
2019-05-06T18:07:00.399Z,27.07
2019-05-06T18:10:08.436Z,26.03
2019-05-06T18:13:15.967Z,18.13
2019-05-06T18:16:23.516Z,25.60
2019-05-06T18:19:33.135Z,23.63
2019-05-06T18:22:40.512Z,23.73
2019-05-06T18:25:48.350Z,22.40
2019-05-06T18:28:58.530Z,23.27
2019-05-06T18:32:06.154Z,19.73
2019-05-06T18:35:13.691Z,22.00
2019-05-06T18:38:22.904Z,23.20
2019-05-06T18:41:32.379Z,24.40
2019-05-06T18:44:42.087Z,25.20
2019-05-06T18:47:49.160Z,22.80
2019-05-06T18:50:56.666Z,37.37
2019-05-06T18:54:04.238Z,25.33
2019-05-06T18:57:12.946Z,22.43
2019-05-06T19:00:22.575Z,29.27
2019-05-06T19:03:34.363Z,23.40
2019-05-06T19:06:42.464Z,18.67
2019-05-06T19:10:22.339Z,22.63
2019-05-06T19:13:30.343Z,18.10
2019-05-06T19:16:48.710Z,21.53
2019-05-06T19:19:47.150Z,21.23
2019-05-06T19:22:54.686Z,19.70
2019-05-06T19:26:02.887Z,19.73
2019-05-06T19:29:12.236Z,17.33
2019-05-06T19:32:22.545Z,21.87
2019-05-06T19:35:34.190Z,20.37
2019-05-06T19:38:39.553Z,23.40
2019-05-06T19:41:47.388Z,18.20
2019-05-06T19:44:54.924Z,21.33
2019-05-06T19:48:03.061Z,22.17
2019-05-06T19:51:10.585Z,28.63
2019-05-06T19:54:18.223Z,24.70
2019-05-06T19:57:25.722Z,25.90
2019-05-06T20:00:33.814Z,21.90
2019-05-06T20:03:41.349Z,28.60
2019-05-06T20:07:07.594Z,29.67
2019-05-06T20:10:33.826Z,29.40
2019-05-06T20:13:41.358Z,19.93
2019-05-06T20:16:49.044Z,20.53
2019-05-06T20:19:56.587Z,18.87
2019-05-06T20:23:04.412Z,18.33
2019-05-06T20:26:12.457Z,19.60
2019-05-06T20:29:22.244Z,22.47
2019-05-06T20:32:29.247Z,24.57
2019-05-06T20:35:36.798Z,19.17
2019-05-06T20:38:45.490Z,19.50
2019-05-06T20:41:53.328Z,22.20
2019-05-06T20:45:02.145Z,25.30
2019-05-06T20:48:12.969Z,26.90
2019-05-06T20:51:21.912Z,25.50
2019-05-06T20:54:29.652Z,28.67
2019-05-06T20:57:37.144Z,22.10
2019-05-06T21:00:44.642Z,19.60
2019-05-06T21:03:52.834Z,20.87
2019-05-06T21:07:02.613Z,15.63
2019-05-06T21:10:12.508Z,25.23
2019-05-06T21:13:29.606Z,22.03
2019-05-06T21:16:28.622Z,17.70
2019-05-06T21:19:36.182Z,19.80
2019-05-06T21:22:43.657Z,18.87
2019-05-06T21:25:52.389Z,21.70
2019-05-06T21:29:00.074Z,15.30
2019-05-06T21:32:07.961Z,17.50
2019-05-06T21:35:15.832Z,17.87
2019-05-06T21:38:23.318Z,21.17
2019-05-06T21:41:32.738Z,13.80
2019-05-06T21:44:40.031Z,18.57
2019-05-06T21:47:47.812Z,20.40
2019-05-06T21:50:55.290Z,21.83
2019-05-06T21:54:02.962Z,18.37
2019-05-06T21:57:12.208Z,19.87
2019-05-06T22:00:23.410Z,25.53
2019-05-06T22:03:32.855Z,23.23
2019-05-06T22:06:45.229Z,22.50
2019-05-06T22:09:49.910Z,26.70
2019-05-06T22:12:57.622Z,25.77
2019-05-06T22:16:05.195Z,22.00
2019-05-06T22:19:12.715Z,28.10
2019-05-06T22:22:23.306Z,26.87
2019-05-06T22:25:29.716Z,30.43
2019-05-06T22:28:37.326Z,23.33
2019-05-06T22:31:46.162Z,31.70
2019-05-06T22:34:53.744Z,29.77
2019-05-06T22:38:02.860Z,29.30
2019-05-06T22:41:10.500Z,31.83
2019-05-06T22:44:18.160Z,28.07
2019-05-06T22:47:25.838Z,26.67
2019-05-06T22:50:33.440Z,27.73
2019-05-06T22:53:42.452Z,28.83
2019-05-06T22:56:50.217Z,32.00
2019-05-06T22:59:57.672Z,26.50
2019-05-06T23:03:09.539Z,27.33
2019-05-06T23:06:17.014Z,30.30
2019-05-06T23:09:25.004Z,26.10
2019-05-06T23:12:32.652Z,25.83
2019-05-06T23:15:42.082Z,31.30
2019-05-06T23:18:49.661Z,23.73
2019-05-06T23:21:57.126Z,26.13
2019-05-06T23:25:05.052Z,24.63
2019-05-06T23:28:12.580Z,26.50
2019-05-06T23:31:21.976Z,25.97
2019-05-06T23:34:29.832Z,26.63
2019-05-06T23:38:13.216Z,19.57
2019-05-06T23:41:56.063Z,18.60
2019-05-06T23:45:38.774Z,19.70
2019-05-06T23:49:22.844Z,22.63
2019-05-06T23:53:06.492Z,24.30
2019-05-06T23:56:44.020Z,20.03
2019-05-06T23:59:52.255Z,23.20
